createdAt,value
2018-07-31T00:00:44.845Z,94766.95
2018-07-31T00:03:13.940Z,94770.15
2018-07-31T00:05:43.013Z,94767.91
2018-07-31T00:08:11.963Z,94768.26
2018-07-31T00:10:41.011Z,94770.62
2018-07-31T00:13:10.107Z,94766.57
2018-07-31T00:15:39.194Z,94772.78
2018-07-31T00:18:08.531Z,94775.69
2018-07-31T00:20:37.791Z,94778.59
2018-07-31T00:23:07.107Z,94779.82
2018-07-31T00:25:36.809Z,94777.12
2018-07-31T00:28:05.890Z,94785.33
2018-07-31T00:30:34.904Z,94783.38
2018-07-31T00:33:04.039Z,94784.27
2018-07-31T00:35:33.186Z,94794.16
2018-07-31T00:38:02.390Z,94793.42
2018-07-31T00:40:31.903Z,94792.48
2018-07-31T00:43:01.004Z,94790.33
2018-07-31T00:45:30.096Z,94789.36
2018-07-31T00:47:59.199Z,94797.27
2018-07-31T00:50:28.266Z,94791.08
2018-07-31T00:52:57.249Z,94799.23
2018-07-31T00:55:26.288Z,94796.59
2018-07-31T00:57:55.265Z,94802.37
2018-07-31T01:00:24.369Z,94790.16
2018-07-31T01:02:53.418Z,94785.38
2018-07-31T01:05:22.439Z,94787.87
2018-07-31T01:07:51.538Z,94793.41
2018-07-31T01:10:20.815Z,94788.15
2018-07-31T01:12:49.614Z,94784.72
2018-07-31T01:15:18.695Z,94779.98
2018-07-31T01:17:47.651Z,94778.70
2018-07-31T01:20:16.755Z,94780.34
2018-07-31T01:22:45.710Z,94775.17
2018-07-31T01:25:14.952Z,94768.44
2018-07-31T01:27:44.320Z,94773.77
2018-07-31T01:30:13.279Z,94774.53
2018-07-31T01:32:42.358Z,94771.42
2018-07-31T01:35:11.489Z,94771.66
2018-07-31T01:37:40.598Z,94772.06
2018-07-31T01:40:09.975Z,94769.28
2018-07-31T01:42:39.832Z,94766.48
2018-07-31T01:45:08.829Z,94767.76
2018-07-31T01:47:37.967Z,94764.22
2018-07-31T01:50:07.008Z,94764.97
2018-07-31T01:52:36.091Z,94758.83
2018-07-31T01:55:05.230Z,94755.73
2018-07-31T01:57:34.222Z,94755.84
2018-07-31T02:00:03.243Z,94754.25
2018-07-31T02:02:32.817Z,94753.62
2018-07-31T02:05:01.920Z,94754.25
2018-07-31T02:07:31.012Z,94745.42
2018-07-31T02:10:00.371Z,94752.47
2018-07-31T02:12:29.191Z,94756.13
2018-07-31T02:14:58.183Z,94754.30
2018-07-31T02:17:27.256Z,94754.41
2018-07-31T02:19:56.280Z,94749.68
2018-07-31T02:22:25.254Z,94746.69
2018-07-31T02:24:54.359Z,94747.65
2018-07-31T02:27:23.374Z,94755.73
2018-07-31T02:29:57.216Z,94751.70
2018-07-31T02:32:26.271Z,94748.36
2018-07-31T02:34:55.376Z,94744.82
2018-07-31T02:37:24.889Z,94751.39
2018-07-31T02:39:53.967Z,94756.20
2018-07-31T02:42:23.046Z,94757.48
2018-07-31T02:44:52.295Z,94764.09
2018-07-31T02:47:21.372Z,94768.83
2018-07-31T02:49:50.465Z,94772.37
2018-07-31T02:52:19.497Z,94771.61
2018-07-31T02:54:48.664Z,94774.44
2018-07-31T02:57:18.135Z,94773.86
2018-07-31T02:59:47.064Z,94773.83
2018-07-31T03:02:16.357Z,94775.86
2018-07-31T03:04:46.424Z,94775.23
2018-07-31T03:07:15.403Z,94773.09
2018-07-31T03:09:44.370Z,94781.52
2018-07-31T03:12:13.471Z,94770.73
2018-07-31T03:14:42.900Z,94779.31
2018-07-31T03:17:11.859Z,94773.02
2018-07-31T03:19:40.968Z,94768.89
2018-07-31T03:22:10.088Z,94767.59
2018-07-31T03:24:39.231Z,94773.61
2018-07-31T03:27:08.328Z,94772.19
2018-07-31T03:29:37.758Z,94776.98
2018-07-31T03:32:06.892Z,94778.81
2018-07-31T03:34:35.879Z,94781.17
2018-07-31T03:37:05.182Z,94786.23
2018-07-31T03:39:34.323Z,94787.97
2018-07-31T03:42:03.243Z,94786.95
2018-07-31T03:44:32.163Z,94800.03
2018-07-31T03:47:01.233Z,94801.02
2018-07-31T03:49:30.380Z,94806.03
2018-07-31T03:51:59.519Z,94800.66
2018-07-31T03:54:28.702Z,94798.09
2018-07-31T03:56:57.603Z,94805.72
2018-07-31T03:59:26.603Z,94807.14
2018-07-31T04:01:55.859Z,94825.14
2018-07-31T04:04:25.059Z,94827.70
2018-07-31T04:06:54.399Z,94829.45
2018-07-31T04:09:23.531Z,94828.47
2018-07-31T04:11:52.674Z,94826.04
2018-07-31T04:14:22.282Z,94816.80
2018-07-31T04:16:51.631Z,94821.42
2018-07-31T04:19:20.682Z,94816.73
2018-07-31T04:21:49.739Z,94827.25
2018-07-31T04:24:18.834Z,94828.23
2018-07-31T04:26:47.846Z,94827.72
2018-07-31T04:29:17.076Z,94835.88
2018-07-31T04:31:46.151Z,94832.42
2018-07-31T04:34:15.218Z,94837.05
2018-07-31T04:36:44.479Z,94834.69
2018-07-31T04:39:14.501Z,94837.05
2018-07-31T04:41:44.115Z,94835.03
2018-07-31T04:44:13.371Z,94831.94
2018-07-31T04:46:42.511Z,94836.01
2018-07-31T04:49:11.646Z,94838.91
2018-07-31T04:51:43.016Z,94843.84
2018-07-31T04:54:12.895Z,94837.73
2018-07-31T04:56:41.846Z,94839.89
2018-07-31T04:59:11.515Z,94845.02
2018-07-31T05:01:40.787Z,94839.87
2018-07-31T05:04:09.805Z,94838.91
2018-07-31T05:06:40.497Z,94842.23
2018-07-31T05:09:12.133Z,94840.64
2018-07-31T05:11:41.623Z,94847.83
2018-07-31T05:14:12.700Z,94840.84
2018-07-31T05:16:45.362Z,94841.48
2018-07-31T05:19:15.575Z,94845.91
2018-07-31T05:21:47.607Z,94843.86
2018-07-31T05:24:16.650Z,94843.31
2018-07-31T05:26:45.738Z,94845.47
2018-07-31T05:29:14.766Z,94850.18
2018-07-31T05:31:43.823Z,94850.20
2018-07-31T05:34:13.023Z,94849.97
2018-07-31T05:36:42.043Z,94845.67
2018-07-31T05:39:12.244Z,94843.75
2018-07-31T05:41:41.406Z,94848.14
2018-07-31T05:44:10.959Z,94842.91
2018-07-31T05:46:40.152Z,94853.73
2018-07-31T05:49:09.911Z,94846.95
2018-07-31T05:51:43.212Z,94849.52
2018-07-31T05:54:12.220Z,94850.66
2018-07-31T05:56:41.467Z,94854.77
2018-07-31T05:59:10.455Z,94849.25
2018-07-31T06:01:39.935Z,94851.20
2018-07-31T06:04:08.945Z,94851.63
2018-07-31T06:06:37.924Z,94850.50
2018-07-31T06:09:09.364Z,94848.48
2018-07-31T06:11:38.999Z,94860.19
2018-07-31T06:14:08.859Z,94851.28
2018-07-31T06:16:38.118Z,94850.34
2018-07-31T06:19:07.212Z,94855.11
2018-07-31T06:21:36.534Z,94852.00
2018-07-31T06:24:05.877Z,94851.23
2018-07-31T06:26:34.883Z,94855.40
2018-07-31T06:29:03.882Z,94856.65
2018-07-31T06:31:33.330Z,94847.68
2018-07-31T06:34:02.334Z,94849.70
2018-07-31T06:36:31.500Z,94852.36
2018-07-31T06:39:00.815Z,94856.22
2018-07-31T06:41:29.755Z,94862.53
2018-07-31T06:43:58.808Z,94856.05
2018-07-31T06:46:28.432Z,94863.98
2018-07-31T06:48:57.609Z,94859.69
2018-07-31T06:51:26.622Z,94862.17
2018-07-31T06:53:55.631Z,94863.41
2018-07-31T06:56:24.900Z,94857.92
2018-07-31T06:58:54.082Z,94863.04
2018-07-31T07:01:23.838Z,94862.94
2018-07-31T07:03:53.090Z,94866.69
2018-07-31T07:06:22.323Z,94860.75
2018-07-31T07:08:51.318Z,94853.09
2018-07-31T07:11:20.617Z,94856.63
2018-07-31T07:13:49.809Z,94865.00
2018-07-31T07:16:19.622Z,94853.95
2018-07-31T07:18:48.640Z,94847.67
2018-07-31T07:21:17.953Z,94855.20
2018-07-31T07:23:47.656Z,94860.17
2018-07-31T07:26:17.448Z,94849.92
2018-07-31T07:28:46.774Z,94850.55
2018-07-31T07:31:15.739Z,94855.92
2018-07-31T07:33:45.709Z,94851.95
2018-07-31T07:36:15.354Z,94862.19
2018-07-31T07:38:44.680Z,94861.74
2018-07-31T07:41:13.638Z,94861.19
2018-07-31T07:43:42.754Z,94861.45
2018-07-31T07:46:11.902Z,94870.73
2018-07-31T07:48:42.597Z,94861.27
2018-07-31T07:51:11.327Z,94867.58
2018-07-31T07:53:40.394Z,94864.61
2018-07-31T07:56:09.470Z,94864.72
2018-07-31T07:58:38.578Z,94865.63
2018-07-31T08:01:07.790Z,94869.28
2018-07-31T08:03:36.786Z,94871.27
2018-07-31T08:06:05.775Z,94869.95
2018-07-31T08:08:35.001Z,94868.09
2018-07-31T08:11:04.152Z,94872.23
2018-07-31T08:13:33.206Z,94874.11
2018-07-31T08:16:02.655Z,94867.14
2018-07-31T08:18:31.627Z,94862.22
2018-07-31T08:21:00.736Z,94865.92
2018-07-31T08:23:30.035Z,94861.80
2018-07-31T08:25:59.108Z,94863.54
2018-07-31T08:28:28.123Z,94843.77
2018-07-31T08:30:57.577Z,94864.20
2018-07-31T08:33:26.711Z,94865.98
2018-07-31T08:35:55.814Z,94859.38
2018-07-31T08:38:25.027Z,94872.26
2018-07-31T08:40:54.084Z,94858.00
2018-07-31T08:43:23.474Z,94863.69
2018-07-31T08:45:52.595Z,94862.92
2018-07-31T08:48:21.693Z,94858.91
2018-07-31T08:50:51.100Z,94854.81
2018-07-31T08:53:19.921Z,94846.87
2018-07-31T08:55:49.716Z,94844.94
2018-07-31T08:58:18.863Z,94841.13
2018-07-31T09:00:47.930Z,94839.13
2018-07-31T09:03:16.908Z,94833.73
2018-07-31T09:05:47.043Z,94836.78
2018-07-31T09:08:16.498Z,94831.88
2018-07-31T09:10:45.456Z,94833.92
2018-07-31T09:13:14.667Z,94828.73
2018-07-31T09:15:43.620Z,94833.11
2018-07-31T09:18:12.708Z,94820.41
2018-07-31T09:20:41.935Z,94831.19
2018-07-31T09:23:10.982Z,94826.72
2018-07-31T09:25:46.828Z,94814.67
2018-07-31T09:28:17.387Z,94829.86
2018-07-31T09:30:51.716Z,94828.91
2018-07-31T09:33:20.973Z,94823.44
2018-07-31T09:35:50.188Z,94827.20
2018-07-31T09:38:19.109Z,94828.21
2018-07-31T09:40:48.015Z,94829.82
2018-07-31T09:43:17.307Z,94829.11
2018-07-31T09:45:46.500Z,94820.86
2018-07-31T09:48:15.660Z,94825.55
2018-07-31T09:50:44.792Z,94817.42
2018-07-31T09:53:13.806Z,94819.30
2018-07-31T09:55:43.096Z,94819.55
2018-07-31T09:58:12.235Z,94812.57
2018-07-31T10:00:46.308Z,94814.46
2018-07-31T10:03:15.446Z,94812.58
2018-07-31T10:05:44.544Z,94808.98
2018-07-31T10:08:17.603Z,94803.51
2018-07-31T10:10:46.672Z,94799.52
2018-07-31T10:13:15.695Z,94801.59
2018-07-31T10:15:45.098Z,94793.84
2018-07-31T10:18:14.311Z,94789.95
2018-07-31T10:20:43.946Z,94792.11
2018-07-31T10:23:13.206Z,94803.66
2018-07-31T10:25:42.322Z,94796.70
2018-07-31T10:28:11.182Z,94800.55
2018-07-31T10:30:40.827Z,94790.84
2018-07-31T10:33:09.888Z,94790.86
2018-07-31T10:35:38.895Z,94779.00
2018-07-31T10:38:07.979Z,94784.59
2018-07-31T10:40:37.179Z,94787.37
2018-07-31T10:43:06.384Z,94778.75
2018-07-31T10:45:35.606Z,94779.93
2018-07-31T10:48:04.777Z,94775.78
2018-07-31T10:50:33.768Z,94777.14
2018-07-31T10:53:02.876Z,94785.72
2018-07-31T10:55:31.973Z,94788.28
2018-07-31T10:58:00.980Z,94777.86
2018-07-31T11:00:30.097Z,94783.23
2018-07-31T11:02:59.465Z,94782.89
2018-07-31T11:05:28.661Z,94774.92
2018-07-31T11:07:57.730Z,94776.75
2018-07-31T11:10:26.800Z,94767.44
2018-07-31T11:12:55.954Z,94773.21
2018-07-31T11:15:25.171Z,94761.23
2018-07-31T11:17:54.304Z,94768.05
2018-07-31T11:20:23.427Z,94764.15
2018-07-31T11:22:52.887Z,94757.78
2018-07-31T11:25:22.830Z,94761.53
2018-07-31T11:27:51.862Z,94759.45
2018-07-31T11:30:20.981Z,94765.92
2018-07-31T11:32:50.021Z,94773.92
2018-07-31T11:35:19.740Z,94769.02
2018-07-31T11:37:49.138Z,94775.14
2018-07-31T11:40:18.740Z,94768.98
2018-07-31T11:42:48.043Z,94767.75
2018-07-31T11:45:17.128Z,94762.44
2018-07-31T11:47:46.251Z,94766.80
2018-07-31T11:50:15.532Z,94773.96
2018-07-31T11:52:44.636Z,94772.97
2018-07-31T11:55:13.775Z,94767.53
2018-07-31T11:57:42.887Z,94766.02
2018-07-31T12:00:13.463Z,94762.34
2018-07-31T12:02:42.744Z,94769.88
2018-07-31T12:05:11.822Z,94764.82
2018-07-31T12:07:41.246Z,94765.16
2018-07-31T12:10:10.130Z,94749.66
2018-07-31T12:12:39.438Z,94747.50
2018-07-31T12:15:08.560Z,94752.53
2018-07-31T12:17:37.601Z,94753.69
2018-07-31T12:20:06.952Z,94754.95
2018-07-31T12:22:36.123Z,94761.35
2018-07-31T12:25:05.088Z,94774.19
2018-07-31T12:27:34.300Z,94772.55
2018-07-31T12:30:03.711Z,94799.07
2018-07-31T12:32:32.877Z,94789.45
2018-07-31T12:35:01.796Z,94792.47
2018-07-31T12:37:31.242Z,94772.43
2018-07-31T12:40:00.380Z,94774.92
2018-07-31T12:42:29.481Z,94780.25
2018-07-31T12:44:58.860Z,94773.89
2018-07-31T12:47:27.734Z,94777.24
2018-07-31T12:49:57.348Z,94774.41
2018-07-31T12:52:27.118Z,94778.56
2018-07-31T12:54:56.333Z,94764.30
2018-07-31T12:57:25.610Z,94775.83
2018-07-31T12:59:54.789Z,94765.70
2018-07-31T13:02:24.215Z,94779.66
2018-07-31T13:04:53.056Z,94784.14
2018-07-31T13:07:22.636Z,94790.04
2018-07-31T13:09:51.819Z,94797.14
2018-07-31T13:12:20.894Z,94803.27
2018-07-31T13:14:50.536Z,94810.77
2018-07-31T13:17:19.823Z,94816.99
2018-07-31T13:19:49.115Z,94824.06
2018-07-31T13:22:21.038Z,94831.73
2018-07-31T13:24:50.401Z,94831.69
2018-07-31T13:27:19.801Z,94831.95
2018-07-31T13:29:49.205Z,94833.91
2018-07-31T13:32:18.293Z,94838.13
2018-07-31T13:34:47.599Z,94832.89
2018-07-31T13:37:17.207Z,94839.95
2018-07-31T13:39:46.313Z,94837.68
2018-07-31T13:42:15.794Z,94847.30
2018-07-31T13:44:45.147Z,94841.08
2018-07-31T13:47:14.081Z,94831.16
2018-07-31T13:49:43.719Z,94839.90
2018-07-31T13:52:13.016Z,94846.47
2018-07-31T13:54:42.316Z,94840.47
2018-07-31T13:57:11.613Z,94835.56
2018-07-31T13:59:41.135Z,94841.33
2018-07-31T14:02:10.328Z,94838.68
2018-07-31T14:04:39.323Z,94833.27
2018-07-31T14:07:08.592Z,94827.79
2018-07-31T14:09:37.604Z,94831.70
2018-07-31T14:12:06.711Z,94821.70
2018-07-31T14:14:36.125Z,94825.98
2018-07-31T14:17:05.016Z,94818.41
2018-07-31T14:19:34.113Z,94817.06
2018-07-31T14:22:03.913Z,94823.17
2018-07-31T14:24:33.121Z,94826.25
2018-07-31T14:27:02.200Z,94820.63
2018-07-31T14:29:31.742Z,94820.77
2018-07-31T14:32:00.852Z,94825.22
2018-07-31T14:34:29.922Z,94833.01
2018-07-31T14:36:59.442Z,94843.64
2018-07-31T14:39:28.379Z,94839.31
2018-07-31T14:41:57.610Z,94842.70
2018-07-31T14:44:26.948Z,94844.37
2018-07-31T14:46:56.322Z,94846.03
2018-07-31T14:49:25.426Z,94850.16
2018-07-31T14:51:55.354Z,94850.58
2018-07-31T14:54:24.518Z,94852.53
2018-07-31T14:56:53.503Z,94849.09
2018-07-31T14:59:22.726Z,94853.28
2018-07-31T15:01:51.662Z,94853.63
2018-07-31T15:04:20.716Z,94845.23
2018-07-31T15:06:49.951Z,94856.61
2018-07-31T15:09:19.308Z,94855.30
2018-07-31T15:11:48.511Z,94862.36
2018-07-31T15:14:17.847Z,94859.07
2018-07-31T15:16:47.717Z,94857.63
2018-07-31T15:19:16.847Z,94861.57
2018-07-31T15:21:46.864Z,94864.15
2018-07-31T15:24:15.941Z,94858.20
2018-07-31T15:26:45.227Z,94857.13
2018-07-31T15:29:15.278Z,94853.34
2018-07-31T15:31:44.279Z,94850.66
2018-07-31T15:34:13.478Z,94851.91
2018-07-31T15:36:42.759Z,94855.82
2018-07-31T15:39:13.334Z,94847.44
2018-07-31T15:41:42.686Z,94844.78
2018-07-31T15:44:12.269Z,94850.36
2018-07-31T15:46:41.407Z,94847.95
2018-07-31T15:49:10.502Z,94851.25
2018-07-31T15:51:39.919Z,94850.16
2018-07-31T15:54:09.078Z,94849.98
2018-07-31T15:56:38.914Z,94847.27
2018-07-31T15:59:08.145Z,94843.06
2018-07-31T16:01:37.416Z,94847.14
2018-07-31T16:04:06.707Z,94847.97
2018-07-31T16:06:35.890Z,94842.72
2018-07-31T16:09:06.577Z,94845.62
2018-07-31T16:11:35.764Z,94844.50
2018-07-31T16:14:05.272Z,94843.28
2018-07-31T16:16:34.352Z,94837.28
2018-07-31T16:19:03.454Z,94834.85
2018-07-31T16:21:32.876Z,94839.42
2018-07-31T16:24:02.056Z,94842.08
2018-07-31T16:26:30.963Z,94834.86
2018-07-31T16:29:00.389Z,94833.03
2018-07-31T16:31:29.527Z,94835.48
2018-07-31T16:33:59.356Z,94835.58
2018-07-31T16:36:28.400Z,94839.30
2018-07-31T16:38:57.331Z,94830.22
2018-07-31T16:41:26.375Z,94840.63
2018-07-31T16:43:55.463Z,94830.42
2018-07-31T16:46:24.628Z,94833.93
2018-07-31T16:48:53.858Z,94837.02
2018-07-31T16:51:23.043Z,94837.28
2018-07-31T16:53:52.028Z,94836.16
2018-07-31T16:56:21.122Z,94840.70
2018-07-31T16:58:50.577Z,94846.81
2018-07-31T17:01:19.724Z,94843.55
2018-07-31T17:03:48.825Z,94846.59
2018-07-31T17:06:17.970Z,94847.60
2018-07-31T17:08:47.126Z,94847.45
2018-07-31T17:11:16.128Z,94850.72
2018-07-31T17:13:45.659Z,94850.47
2018-07-31T17:16:14.735Z,94849.42
2018-07-31T17:18:43.859Z,94860.81
2018-07-31T17:21:13.554Z,94864.83
2018-07-31T17:23:42.535Z,94861.41
2018-07-31T17:26:11.732Z,94864.62
2018-07-31T17:28:41.057Z,94873.50
2018-07-31T17:31:10.342Z,94876.81
2018-07-31T17:33:39.638Z,94884.58
2018-07-31T17:36:08.523Z,94892.08
2018-07-31T17:38:37.799Z,94880.23
2018-07-31T17:41:06.892Z,94887.81
2018-07-31T17:43:36.156Z,94887.48
2018-07-31T17:46:05.426Z,94885.91
2018-07-31T17:48:34.977Z,94884.92
2018-07-31T17:51:04.198Z,94897.56
2018-07-31T17:53:33.387Z,94902.77
2018-07-31T17:56:03.177Z,94895.21
2018-07-31T17:58:32.355Z,94903.60
2018-07-31T18:01:01.516Z,94903.94
2018-07-31T18:03:30.532Z,94913.92
2018-07-31T18:05:59.514Z,94912.11
2018-07-31T18:08:28.703Z,94912.75
2018-07-31T18:10:57.714Z,94915.81
2018-07-31T18:13:26.613Z,94921.41
2018-07-31T18:15:55.710Z,94928.50
2018-07-31T18:18:24.754Z,94938.86
2018-07-31T18:20:54.208Z,94944.49
2018-07-31T18:23:23.411Z,94943.95
2018-07-31T18:25:52.555Z,94950.84
2018-07-31T18:28:21.711Z,94948.58
2018-07-31T18:30:50.822Z,94949.99
2018-07-31T18:33:19.994Z,94940.41
2018-07-31T18:35:48.995Z,94923.56
2018-07-31T18:38:18.213Z,94938.05
2018-07-31T18:40:47.515Z,94944.73
2018-07-31T18:43:16.401Z,94948.80
2018-07-31T18:45:45.675Z,94945.78
2018-07-31T18:48:15.188Z,94949.24
2018-07-31T18:50:44.114Z,94951.60
2018-07-31T18:53:13.195Z,94950.41
2018-07-31T18:55:42.428Z,94947.30
2018-07-31T18:58:11.583Z,94949.42
2018-07-31T19:00:40.707Z,94949.42
2018-07-31T19:03:09.731Z,94942.01
2018-07-31T19:05:38.885Z,94937.18
2018-07-31T19:08:08.159Z,94942.77
2018-07-31T19:10:37.443Z,94934.94
2018-07-31T19:13:06.563Z,94933.20
2018-07-31T19:15:35.356Z,94926.30
2018-07-31T19:18:04.191Z,94937.91
2018-07-31T19:20:33.267Z,94949.27
2018-07-31T19:23:02.293Z,94937.43
2018-07-31T19:25:31.690Z,94940.22
2018-07-31T19:28:00.774Z,94941.05
2018-07-31T19:30:29.914Z,94942.23
2018-07-31T19:32:58.967Z,94932.99
2018-07-31T19:35:27.958Z,94939.52
2018-07-31T19:37:57.233Z,94940.72
2018-07-31T19:40:26.504Z,94938.56
2018-07-31T19:42:55.359Z,94940.28
2018-07-31T19:45:24.309Z,94952.08
2018-07-31T19:47:53.643Z,94941.88
2018-07-31T19:50:23.452Z,94939.28
2018-07-31T19:52:52.566Z,94938.19
2018-07-31T19:55:21.653Z,94940.45
2018-07-31T19:57:50.816Z,94944.39
2018-07-31T20:00:20.015Z,94936.66
2018-07-31T20:02:49.134Z,94938.35
2018-07-31T20:05:18.231Z,94930.06
2018-07-31T20:07:47.130Z,94936.84
2018-07-31T20:10:16.417Z,94937.14
2018-07-31T20:12:45.506Z,94932.63
2018-07-31T20:15:14.566Z,94935.83
2018-07-31T20:17:43.751Z,94937.34
2018-07-31T20:20:12.782Z,94950.95
2018-07-31T20:22:41.683Z,94951.89
2018-07-31T20:25:10.917Z,94950.73
2018-07-31T20:27:40.036Z,94944.42
2018-07-31T20:30:09.013Z,94941.62
2018-07-31T20:32:38.028Z,94948.37
2018-07-31T20:35:06.974Z,94945.25
2018-07-31T20:37:35.937Z,94951.68
2018-07-31T20:40:05.274Z,94951.44
2018-07-31T20:42:34.246Z,94947.05
2018-07-31T20:45:03.300Z,94941.30
2018-07-31T20:47:32.484Z,94949.54
2018-07-31T20:50:01.619Z,94945.95
2018-07-31T20:52:30.520Z,94949.27
2018-07-31T20:54:59.604Z,94956.23
2018-07-31T20:57:28.578Z,94961.17
2018-07-31T20:59:57.520Z,94960.75
2018-07-31T21:02:26.623Z,94957.42
2018-07-31T21:04:55.684Z,94965.53
2018-07-31T21:07:24.642Z,94968.02
2018-07-31T21:09:53.670Z,94977.56
2018-07-31T21:12:22.558Z,94972.77
2018-07-31T21:14:51.451Z,94973.73
2018-07-31T21:17:20.690Z,94981.64
2018-07-31T21:19:49.638Z,94978.52
2018-07-31T21:22:18.738Z,94978.30
2018-07-31T21:24:47.866Z,94974.67
2018-07-31T21:27:16.947Z,94971.43
2018-07-31T21:29:45.921Z,94967.89
2018-07-31T21:32:14.743Z,94967.45
2018-07-31T21:34:43.783Z,94964.89
2018-07-31T21:37:12.597Z,94977.37
2018-07-31T21:39:41.671Z,94974.58
2018-07-31T21:42:10.696Z,94971.43
2018-07-31T21:44:39.542Z,94967.07
2018-07-31T21:47:08.893Z,94962.89
2018-07-31T21:49:37.858Z,94955.15
2018-07-31T21:52:06.870Z,94953.30
2018-07-31T21:54:36.017Z,94951.85
2018-07-31T21:57:04.939Z,94948.44
2018-07-31T21:59:34.052Z,94950.80
2018-07-31T22:02:03.489Z,94960.21
2018-07-31T22:04:32.448Z,94950.46
2018-07-31T22:07:01.373Z,94954.52
2018-07-31T22:09:37.667Z,94952.84
2018-07-31T22:12:06.591Z,94957.81
2018-07-31T22:14:35.673Z,94956.09
2018-07-31T22:17:04.837Z,94957.09
2018-07-31T22:19:33.882Z,94955.11
2018-07-31T22:22:02.974Z,94953.27
2018-07-31T22:24:31.864Z,94953.39
2018-07-31T22:27:00.670Z,94949.33
2018-07-31T22:29:29.662Z,94953.05
2018-07-31T22:31:58.681Z,94943.39
2018-07-31T22:34:27.535Z,94940.61
2018-07-31T22:36:56.722Z,94939.80
2018-07-31T22:39:25.972Z,94938.95
2018-07-31T22:41:54.742Z,94940.52
2018-07-31T22:44:23.819Z,94937.83
2018-07-31T22:46:53.135Z,94941.57
2018-07-31T22:49:22.298Z,94936.85
2018-07-31T22:51:51.315Z,94935.11
2018-07-31T22:54:20.523Z,94946.01
2018-07-31T22:56:49.374Z,94943.64
2018-07-31T22:59:18.280Z,94934.19
2018-07-31T23:01:47.503Z,94925.20
2018-07-31T23:04:16.770Z,94932.80
2018-07-31T23:06:45.684Z,94928.25
2018-07-31T23:09:14.691Z,94940.31
2018-07-31T23:11:43.746Z,94934.16
2018-07-31T23:14:12.656Z,94934.88
2018-07-31T23:16:41.788Z,94939.80
2018-07-31T23:19:10.833Z,94925.64
2018-07-31T23:21:39.774Z,94924.95
2018-07-31T23:24:08.649Z,94928.30
2018-07-31T23:26:37.504Z,94925.71
2018-07-31T23:29:06.318Z,94920.41
2018-07-31T23:31:35.330Z,94933.23
2018-07-31T23:34:04.490Z,94925.64
2018-07-31T23:36:33.325Z,94926.06
2018-07-31T23:39:02.628Z,94931.55
2018-07-31T23:41:31.574Z,94925.94
2018-07-31T23:44:00.371Z,94930.35
2018-07-31T23:46:29.494Z,94933.52
2018-07-31T23:48:58.458Z,94931.86
2018-07-31T23:51:27.255Z,94930.50
2018-07-31T23:53:56.136Z,94931.55
2018-07-31T23:56:25.143Z,94937.78
2018-07-31T23:58:54.489Z,94936.02
